Flight Track Log - Related Links

Times and Time Zones

All times are in EDT time to prevent confusion due to time zone crossing. See the KAP927 flight status page for this flight to view local times or setup timezone preferences in your user account.

Time Position Orientation Groundspeed Altitude Reporting Facility
EDT Latitude Longitude Course Direction KTS MPH feet Rate Location/Type
Fri 07:14:44 AM 44.4875 -75.2483 148° Southeast 156 180 4,000  Level Boston Center
Fri 07:15:44 AM 44.4508 -75.2203 151° Southeast 161 185 4,500 400 Climbing Boston Center
Fri 07:16:44 AM 44.4119 -75.1894 150° Southeast 156 180 4,800 350 Climbing Boston Center
Fri 07:17:44 AM 44.3731 -75.1586 150° Southeast 156 180 5,200 400 Climbing Boston Center
Fri 07:18:44 AM 44.3322 -75.1189 145° Southeast 156 180 5,600 150 Climbing Boston Center
Fri 07:19:00 AM 44.5222 -75.3231 149° Southeast  Level Estimated
Fri 07:19:44 AM 44.2933 -75.0853 148° Southeast 161 185 5,500  Level Boston Center
Fri 07:20:00 AM 44.4841 -75.2899 148° Southeast  Level FlightAware Approximate
Fri 07:20:44 AM 44.2464 -75.0456 149° Southeast 175 201 5,500  Level Boston Center
Fri 07:21:44 AM 44.2014 -75.0117 152° Southeast 180 207 5,600  Climbing Boston Center
Fri 07:22:44 AM 44.1606 -74.9753 147° Southeast 180 207 5,500 50 Descending Boston Center
Fri 07:23:44 AM 44.1197 -74.9331 143° Southeast 180 207 5,700 250 Climbing Boston Center
Fri 07:24:44 AM 44.0789 -74.8967 147° Southeast 175 201 6,000 350 Climbing Boston Center
Fri 07:25:44 AM 44.0378 -74.8631 150° Southeast 175 201 6,400 350 Climbing Boston Center
Fri 07:26:44 AM 44.0050 -74.8389 152° Southeast 175 201 6,700 409 Climbing Boston Center
Fri 07:27:56 AM 43.9456 -74.7903 150° Southeast 180 207 7,300 364 Climbing Boston Center
Fri 07:28:56 AM 43.9025 -74.7539 149° Southeast 180 207 7,500 100 Climbing Boston Center
Fri 07:29:56 AM 43.8553 -74.7175 151° Southeast 180 207 7,500  Level Boston Center
Fri 07:30:56 AM 43.8081 -74.6783 149° Southeast 185 213 7,500  Level Boston Center
Fri 07:31:56 AM 43.7589 -74.6392 150° Southeast 197 227 7,500  Level Boston Center
Fri 07:32:56 AM 43.7117 -74.5972 147° Southeast 197 227 7,500  Level Boston Center
Fri 07:33:56 AM 43.6667 -74.5583 148° Southeast 197 227 7,500  Level Boston Center
Fri 07:34:56 AM 43.6214 -74.5222 150° Southeast 197 227 7,500 50 Level Boston Center
Fri 07:35:56 AM 43.5764 -74.4836 148° Southeast 192 221 7,600  Climbing Boston Center
Fri 07:36:56 AM 43.5311 -74.4447 148° Southeast 192 221 7,500 -50 Descending Boston Center
Fri 07:37:56 AM 43.4858 -74.4061 148° Southeast 192 221 7,500 -59 Level Boston Center
Fri 07:38:38 AM 43.4511 -74.3792 151° Southeast 193 222 7,400  Descending Boston Center
Fri 07:38:56 AM 43.4408 -74.3703 148° Southeast 192 221 7,500  Climbing Boston Center
Fri 07:39:33 AM 43.4078 -74.3436 150° Southeast 194 223 7,400 -200 Descending Boston Center
Fri 07:39:56 AM 43.3872 -74.3286 152° Southeast 192 221 7,300 98 Descending Boston Center
Fri 07:40:34 AM 43.3583 -74.3078 152° Southeast 195 224 7,500  Climbing Boston Center
Fri 07:40:56 AM 43.3419 -74.2928 146° Southeast 192 221 7,300 -400 Descending Boston Center
Fri 07:41:34 AM 43.3111 -74.2692 151° Southeast 196 226 7,100 -300 Descending Boston Center
Fri 07:41:56 AM 43.2925 -74.2544 150° Southeast 198 228 7,000 -295 Descending Boston Center
Fri 07:42:35 AM 43.2617 -74.2306 151° Southeast 207 238 6,800 -300 Descending Boston Center
Fri 07:42:56 AM 43.2411 -74.2186 157° South 198 228 6,700 -295 Descending Boston Center
Fri 07:43:36 AM 43.2100 -74.2006 157° South 204 235 6,500 -400 Descending Boston Center
Fri 07:43:56 AM 43.1894 -74.1828 148° Southeast 198 228 6,300 -450 Descending Boston Center
Fri 07:44:56 AM 43.1400 -74.1503 154° Southeast 198 228 5,900 -425 Descending Boston Center
Fri 07:45:49 AM 43.0967 -74.1233 156° South 203 234 5,500 -421 Descending Boston Center
Fri 07:46:50 AM 43.0469 -74.0881 153° Southeast 202 232 5,100 -347 Descending Boston Center
Fri 07:47:50 AM 42.9997 -74.0497 149° Southeast 200 230 4,800 -347 Descending Boston Center
Fri 07:48:51 AM 42.9481 -74.0144 153° Southeast 194 223 4,400 -443 Descending Boston Center
Fri 07:49:52 AM 42.8964 -73.9792 153° Southeast 195 224 3,900 -545 Descending Boston Center
Fri 07:50:52 AM 42.8531 -73.9467 151° Southeast 192 221 3,300 -545 Descending Boston Center
Fri 07:51:53 AM 42.8056 -73.9117 152° Southeast 192 221 2,800 -574 Descending Boston Center
Fri 07:52:47 AM 42.7603 -73.8794 152° Southeast 201 231 2,200 -661 Descending Boston Center
Fri 07:54:00 AM 42.7106 -73.8472 155° Southeast 156 180 1,400 -672 Descending Boston Center
Fri 07:55:01 AM 42.7194 -73.8078 73° East 125 144 700 -689 Descending Boston Center
Fri 07:57:00 AM 42.7333 -73.8000 160° South  Level FlightAware Approximate
Fri 08:04:00 AM 42.7491 -73.8020 160° South  Level Estimated
Fri 08:05:00 AM 42.7491 -73.8020 160° South  Level Estimated
Fri 08:06:00 AM 42.7491 -73.8020 160° South  Level Estimated

Login

Don't have an account? Register now (free) for customized features, flight alerts, and more!